Springfield, Maine
Current Conditions -  °F | °C
As of 7:53 AM on Thursday 27 Nov 2014 (Local Time) from KMLT Reporting Station
Overcast Overcast  
Wind Chill: 14°   Ceiling: 5500
Heat Index: 26°   Visibility: 8mi
Dew Point: 20°   Wind: 14mph
Humidity: 78%   Direction: 340°NNW
Pressure: 29.79"   Gusts: 23mph
Location:  45.4°N, 68.13°W
Report Text: KMLT 271253Z AUTO 34012G20KT 8SM BKN055 OVC065 M03/M07 A2979 RMK AO2 SLP098 T10331067 PWINO FZRANO $
Loading
Personal Weather Stations






























Interactive Weather Map New forecast layout! Learn more

10-Day Weather Forecast

Advertisements
Track Severe Weather on mobile